Time;durP1;ratioP1;P1;durP2;ratioP2;P2;SDS_P1;SDS_P2;PMS_P1;PMS_P2;Temp;Humidity;BMP_temperature;BMP_pressure;BME280_temperature;BME280_humidity;BME280_pressure;Samples;Min_cycle;Max_cycle;Signal;HPM_P1;HPM_P2
2022/10/05 00:00:53;;;;;;;3.00;2.80;;;;;;;14.18;63.87;100393.41;4983620;28;20199;-68
2022/10/05 00:03:19;;;;;;;4.03;2.73;;;;;;;14.11;63.43;100392.56;4988947;28;20210;-67
2022/10/05 00:05:46;;;;;;;2.93;2.73;;;;;;;14.07;63.94;100382.47;4992357;28;20671;-68
2022/10/05 00:08:16;;;;;;;2.40;2.30;;;;;;;13.95;64.68;100397.38;4992680;28;20265;-68
2022/10/05 00:10:44;;;;;;;3.10;2.87;;;;;;;13.88;64.90;100397.34;4992991;28;20257;-68
2022/10/05 00:13:16;;;;;;;3.47;3.17;;;;;;;13.89;64.86;100398.97;4993158;28;20249;-68
2022/10/05 00:15:44;;;;;;;2.93;2.73;;;;;;;13.90;64.83;100403.34;4992238;28;20257;-68
2022/10/05 00:18:16;;;;;;;3.27;2.97;;;;;;;13.93;64.85;100402.91;4992583;28;20583;-68
2022/10/05 00:20:43;;;;;;;2.97;2.70;;;;;;;13.94;64.97;100396.56;4996393;28;20660;-68
2022/10/05 00:23:16;;;;;;;2.87;2.77;;;;;;;13.96;65.15;100394.53;4997210;28;20629;-68
2022/10/05 00:25:43;;;;;;;2.97;2.70;;;;;;;13.95;65.40;100398.22;4986044;28;20235;-68
2022/10/05 00:28:17;;;;;;;3.37;3.17;;;;;;;13.93;65.14;100394.91;4976602;28;20254;-67
2022/10/05 00:30:44;;;;;;;2.77;2.67;;;;;;;13.96;64.96;100399.88;4977077;28;20197;-67
2022/10/05 00:33:11;;;;;;;3.00;2.80;;;;;;;13.92;65.74;100403.94;4976721;28;20258;-68
2022/10/05 00:35:39;;;;;;;3.03;2.83;;;;;;;13.90;65.62;100403.34;4977032;28;20203;-67
2022/10/05 00:38:06;;;;;;;2.73;2.63;;;;;;;13.84;65.58;100404.09;4976733;28;20191;-67
2022/10/05 00:40:41;;;;;;;2.77;2.57;;;;;;;13.83;66.26;100404.28;4976696;28;20199;-68
2022/10/05 00:43:30;;;;;;;3.10;2.83;;;;;;;13.79;66.42;100401.19;4976348;28;20667;-68
2022/10/05 00:46:05;;;;;;;2.93;2.50;;;;;;;13.80;66.36;100394.81;4976251;28;20188;-68
2022/10/05 00:48:38;;;;;;;2.17;2.07;;;;;;;13.76;66.63;100384.75;4977716;28;20219;-68
2022/10/05 00:51:22;;;;;;;2.67;2.50;;;;;;;13.73;66.65;100393.13;4976727;28;20274;-68
2022/10/05 00:53:59;;;;;;;3.43;3.23;;;;;;;13.63;66.76;100388.13;4976513;28;20302;-71
2022/10/05 00:56:39;;;;;;;3.00;2.80;;;;;;;13.38;67.09;100362.03;4976118;28;20193;-68
2022/10/05 00:59:18;;;;;;;3.70;3.50;;;;;;;13.30;67.42;100387.03;4976041;28;20195;-68
2022/10/05 01:01:56;;;;;;;4.30;3.40;;;;;;;13.20;67.75;100370.53;4975794;28;20211;-68
2022/10/05 01:04:33;;;;;;;3.43;3.33;;;;;;;13.12;67.76;100373.31;4976356;28;20187;-68
2022/10/05 01:07:10;;;;;;;3.60;3.30;;;;;;;13.12;68.18;100378.66;4975957;28;20242;-68
2022/10/05 01:09:45;;;;;;;3.70;3.37;;;;;;;13.05;68.23;100380.44;4975942;28;20256;-68
2022/10/05 01:12:21;;;;;;;2.93;2.80;;;;;;;13.03;68.44;100376.28;4975911;28;20191;-68
2022/10/05 01:14:55;;;;;;;4.97;3.43;;;;;;;13.06;68.60;100384.72;4976682;28;20250;-68
2022/10/05 01:17:28;;;;;;;3.93;3.73;;;;;;;13.10;68.31;100388.66;4975637;28;20187;-69
2022/10/05 01:20:34;;;;;;;3.30;3.10;;;;;;;12.90;68.40;100382.28;4976038;28;20626;-67
2022/10/05 01:23:39;;;;;;;3.60;3.30;;;;;;;12.76;68.80;100371.66;4970756;28;20227;-67
2022/10/05 01:26:18;;;;;;;3.97;3.67;;;;;;;12.88;68.69;100380.81;4975255;28;20245;-68
2022/10/05 01:28:52;;;;;;;3.70;3.50;;;;;;;12.90;68.90;100378.81;4975580;28;20246;-68
2022/10/05 01:31:26;;;;;;;3.50;3.20;;;;;;;12.89;68.78;100383.31;4976499;28;20199;-67
2022/10/05 01:34:05;;;;;;;3.97;3.67;;;;;;;12.78;69.04;100381.13;4975435;28;20652;-68
2022/10/05 01:36:38;;;;;;;3.20;3.10;;;;;;;12.83;69.08;100389.38;4975917;28;20187;-68
2022/10/05 01:39:13;;;;;;;3.43;3.33;;;;;;;12.92;68.65;100396.25;4975366;28;20192;-68
2022/10/05 01:41:46;;;;;;;3.90;3.60;;;;;;;12.88;68.87;100389.66;4975773;28;20203;-68
2022/10/05 01:44:17;;;;;;;3.40;3.20;;;;;;;12.99;68.80;100405.16;4975277;28;20651;-68
2022/10/05 01:46:52;;;;;;;3.57;3.23;;;;;;;12.95;68.79;100403.88;4975168;28;20238;-68
2022/10/05 01:49:37;;;;;;;4.00;3.63;;;;;;;12.98;68.79;100402.72;4976113;28;20254;-67
2022/10/05 01:52:26;;;;;;;3.70;3.40;;;;;;;12.92;68.20;100409.59;4975084;28;20282;-68
2022/10/05 01:55:07;;;;;;;3.83;3.40;;;;;;;12.87;68.35;100401.31;4975127;28;20238;-68
2022/10/05 01:57:46;;;;;;;4.67;3.53;;;;;;;12.88;68.34;100415.47;4975100;28;20254;-68
2022/10/05 02:00:17;;;;;;;3.67;3.43;;;;;;;12.84;68.67;100412.38;4975117;28;20188;-68
2022/10/05 02:02:48;;;;;;;3.97;3.60;;;;;;;12.88;68.42;100411.00;4993652;28;20210;-67
2022/10/05 02:05:21;;;;;;;5.83;3.10;;;;;;;12.81;68.27;100415.41;4995472;28;20245;-68
2022/10/05 02:07:53;;;;;;;3.47;3.37;;;;;;;12.82;68.26;100422.38;4995000;28;20191;-68
2022/10/05 02:10:25;;;;;;;4.03;3.73;;;;;;;12.70;67.98;100420.41;4994606;28;20194;-68
2022/10/05 02:12:58;;;;;;;3.50;3.20;;;;;;;12.65;68.04;100438.78;4994923;28;20631;-68
2022/10/05 02:15:34;;;;;;;3.77;3.57;;;;;;;12.62;68.23;100434.66;4994696;28;20567;-68
2022/10/05 02:18:08;;;;;;;3.70;3.50;;;;;;;12.55;68.37;100433.75;4994044;28;20255;-68
2022/10/05 02:20:38;;;;;;;3.23;3.03;;;;;;;12.53;68.90;100441.09;4994589;28;20238;-67
2022/10/05 02:23:11;;;;;;;3.53;3.33;;;;;;;12.35;68.28;100427.34;4993725;28;20229;-67
2022/10/05 02:25:42;;;;;;;3.33;3.23;;;;;;;12.45;68.73;100453.72;4985071;28;20331;-68
2022/10/05 02:28:13;;;;;;;3.80;3.50;;;;;;;12.56;68.33;100453.22;4974464;28;20219;-68
2022/10/05 02:30:47;;;;;;;3.30;3.10;;;;;;;12.71;68.22;100465.53;4974866;28;20262;-68
2022/10/05 02:33:19;;;;;;;3.83;3.53;;;;;;;12.51;68.18;100461.78;4974765;28;20257;-68
2022/10/05 02:35:47;;;;;;;3.33;3.20;;;;;;;12.46;68.31;100472.16;4955039;28;20675;-68
2022/10/05 02:38:21;;;;;;;3.53;3.40;;;;;;;12.32;68.50;100469.50;4955360;28;20282;-68
2022/10/05 02:40:57;;;;;;;3.40;3.30;;;;;;;12.18;67.96;100447.19;4955017;28;20218;-68
2022/10/05 02:43:33;;;;;;;3.50;3.40;;;;;;;12.26;68.52;100476.41;4954464;28;20214;-68
2022/10/05 02:46:10;;;;;;;4.00;3.77;;;;;;;12.22;68.58;100485.78;4955298;28;20205;-68
2022/10/05 02:48:45;;;;;;;3.40;3.30;;;;;;;12.20;68.54;100469.13;4954803;28;20196;-68
2022/10/05 02:51:20;;;;;;;4.10;3.90;;;;;;;12.22;68.92;100474.28;4955310;28;20244;-68
2022/10/05 02:53:58;;;;;;;3.77;3.47;;;;;;;12.19;69.14;100470.16;4955199;28;20321;-68
2022/10/05 02:56:32;;;;;;;3.93;3.50;;;;;;;12.19;68.97;100477.28;4954697;28;20192;-68
2022/10/05 02:59:09;;;;;;;3.80;3.60;;;;;;;12.31;68.74;100489.16;4955239;28;20190;-68
2022/10/05 03:01:44;;;;;;;3.40;3.10;;;;;;;12.48;68.22;100491.47;4973720;28;20257;-67
2022/10/05 03:04:24;;;;;;;4.33;3.90;;;;;;;12.50;67.57;100494.75;4993275;28;20648;-67
2022/10/05 03:07:02;;;;;;;4.37;3.97;;;;;;;12.40;68.32;100496.03;4993245;28;20194;-67
2022/10/05 03:09:36;;;;;;;4.03;3.80;;;;;;;12.40;68.32;100490.72;4993078;28;20187;-67
2022/10/05 03:12:12;;;;;;;4.60;4.20;;;;;;;12.21;69.06;100492.09;4993348;28;20245;-67
2022/10/05 03:14:49;;;;;;;4.80;4.40;;;;;;;12.07;69.79;100490.25;4992997;28;20194;-68
2022/10/05 03:17:20;;;;;;;6.07;4.37;;;;;;;11.98;69.94;100486.00;4993079;28;20243;-68
2022/10/05 03:20:02;;;;;;;4.43;4.00;;;;;;;11.77;70.97;100490.34;4993253;28;20197;-67
2022/10/05 03:22:46;;;;;;;4.30;4.10;;;;;;;11.58;71.59;100482.81;4992809;28;20219;-67
2022/10/05 03:25:33;;;;;;;5.10;4.03;;;;;;;11.45;72.44;100486.09;4987031;28;20181;-68
2022/10/05 03:28:10;;;;;;;4.50;4.20;;;;;;;11.38;72.98;100485.13;4973449;28;20624;-68
2022/10/05 03:30:42;;;;;;;3.83;3.50;;;;;;;11.30;73.31;100487.84;4973655;28;20709;-68
2022/10/05 03:33:16;;;;;;;3.87;3.57;;;;;;;11.33;72.86;100487.50;4973756;28;20327;-69
2022/10/05 03:35:52;;;;;;;4.43;4.07;;;;;;;11.30;73.14;100487.84;4954083;28;20186;-68
2022/10/05 03:38:27;;;;;;;3.63;3.40;;;;;;;11.45;72.87;100495.88;4954544;28;20198;-69
2022/10/05 03:40:59;;;;;;;6.47;3.40;;;;;;;11.46;72.82;100497.53;4954075;28;20719;-68
2022/10/05 03:43:59;;;;;;;4.80;4.40;;;;;;;11.45;72.71;100499.38;4954607;28;20246;-68
2022/10/05 03:46:39;;;;;;;3.20;3.10;;;;;;;11.42;73.02;100501.56;4953962;28;20656;-69
2022/10/05 03:49:13;;;;;;;6.33;3.43;;;;;;;11.47;72.57;100505.34;4954227;28;20289;-69
2022/10/05 03:51:43;;;;;;;8.40;3.60;;;;;;;11.36;72.30;100481.84;4953967;28;20244;-68
2022/10/05 03:54:14;;;;;;;5.60;3.27;;;;;;;11.70;72.43;100505.38;4953537;28;20647;-68
2022/10/05 03:56:46;;;;;;;3.80;3.50;;;;;;;11.59;72.82;100503.94;4954109;28;20190;-69
2022/10/05 03:59:18;;;;;;;3.50;3.30;;;;;;;11.60;72.63;100505.59;4953706;28;20236;-69
2022/10/05 04:01:50;;;;;;;3.73;3.43;;;;;;;11.84;71.92;100513.41;4975657;28;20242;-68
2022/10/05 04:04:26;;;;;;;3.93;3.60;;;;;;;11.89;71.67;100516.38;4992361;28;20220;-69
2022/10/05 04:06:55;;;;;;;4.13;3.30;;;;;;;11.91;71.36;100525.00;4992522;28;20644;-68
2022/10/05 04:09:26;;;;;;;4.40;3.20;;;;;;;12.02;70.82;100529.91;4992828;28;20198;-68
2022/10/05 04:12:11;;;;;;;3.60;3.40;;;;;;;12.18;70.53;100529.75;4992456;28;20235;-68
2022/10/05 04:14:41;;;;;;;6.10;3.77;;;;;;;12.23;70.12;100530.03;4992753;28;20195;-68
2022/10/05 04:17:13;;;;;;;3.60;3.30;;;;;;;12.32;70.07;100538.75;4992456;28;20197;-68
2022/10/05 04:19:45;;;;;;;6.17;3.30;;;;;;;12.38;69.96;100538.06;4992316;28;20281;-68
2022/10/05 04:22:18;;;;;;;4.27;3.50;;;;;;;12.38;69.69;100541.56;4992370;28;20218;-67
2022/10/05 04:24:49;;;;;;;4.00;3.70;;;;;;;12.42;69.80;100534.81;4989905;28;20269;-68
2022/10/05 04:27:19;;;;;;;7.47;3.20;;;;;;;12.59;69.31;100541.66;4973484;28;20191;-68
2022/10/05 04:29:51;;;;;;;6.33;4.57;;;;;;;12.65;69.07;100550.72;4972928;28;20191;-68
2022/10/05 04:32:36;;;;;;;3.87;3.47;;;;;;;12.69;68.86;100552.88;4972923;28;20598;-68
2022/10/05 04:35:21;;;;;;;5.37;3.83;;;;;;;12.73;69.30;100553.31;4972994;28;20197;-68
2022/10/05 04:37:57;;;;;;;10.53;3.90;;;;;;;12.79;68.71;100547.25;4973417;28;20198;-68
2022/10/05 04:40:40;;;;;;;7.43;4.93;;;;;;;12.87;68.82;100550.63;4972737;28;20623;-68
2022/10/05 04:43:13;;;;;;;21.17;5.10;;;;;;;12.88;68.75;100546.97;4973214;28;20568;-68
2022/10/05 04:45:58;;;;;;;17.67;5.47;;;;;;;12.97;68.58;100559.22;4972898;28;20216;-68
2022/10/05 04:48:43;;;;;;;10.57;3.90;;;;;;;13.04;68.66;100557.50;4972667;28;20219;-68
2022/10/05 04:51:26;;;;;;;9.67;4.50;;;;;;;13.27;68.26;100565.38;4972557;28;20191;-68
2022/10/05 04:53:57;;;;;;;5.50;3.50;;;;;;;13.58;66.16;100574.75;4972601;28;20720;-69
2022/10/05 04:56:34;;;;;;;6.97;3.30;;;;;;;13.78;64.64;100582.97;4972634;28;20655;-68
2022/10/05 04:59:17;;;;;;;7.47;6.07;;;;;;;14.02;63.12;100583.44;4973026;28;20242;-69
2022/10/05 05:02:02;;;;;;;3.30;2.90;;;;;;;13.90;62.74;100592.13;4973116;28;20257;-68
2022/10/05 05:04:44;;;;;;;3.47;2.87;;;;;;;13.85;62.69;100590.03;4972703;28;20763;-68
2022/10/05 05:07:23;;;;;;;10.00;3.33;;;;;;;13.88;62.62;100589.66;4976776;28;20262;-68
2022/10/05 05:10:28;;;;;;;3.40;3.20;;;;;;;14.19;61.66;100605.34;4980337;28;20178;-69
2022/10/05 05:13:06;;;;;;;9.83;6.20;;;;;;;14.53;61.12;100602.78;4980064;28;20203;-69
2022/10/05 05:15:45;;;;;;;9.67;8.47;;;;;;;14.87;59.85;100602.84;4983658;28;20198;-68
2022/10/05 05:18:48;;;;;;;13.30;6.07;;;;;;;15.15;59.13;100615.13;4978994;28;20198;-69
2022/10/05 05:21:31;;;;;;;12.67;4.73;;;;;;;15.35;58.01;100609.91;4966519;28;20253;-71
2022/10/05 05:24:07;;;;;;;10.20;4.20;;;;;;;15.62;58.36;100608.97;4976083;28;20218;-68
2022/10/05 05:27:04;;;;;;;6.53;3.37;;;;;;;15.82;56.37;100616.03;4983584;28;20186;-68
2022/10/05 05:29:43;;;;;;;6.57;3.00;;;;;;;16.11;56.18;100619.38;4982971;28;20754;-69
2022/10/05 05:32:21;;;;;;;3.00;2.80;;;;;;;16.39;55.43;100614.69;4985042;28;20246;-67
2022/10/05 05:35:04;;;;;;;7.43;3.37;;;;;;;16.67;54.43;100616.16;4982882;28;20254;-67
2022/10/05 05:37:36;;;;;;;10.43;3.50;;;;;;;16.88;52.88;100631.19;4982836;28;20714;-68
2022/10/05 05:40:13;;;;;;;5.20;3.70;;;;;;;17.18;55.02;100626.97;4955962;28;20236;-66
2022/10/05 05:42:56;;;;;;;11.53;3.77;;;;;;;17.93;50.48;100640.56;4956374;28;20643;-66
2022/10/05 05:45:34;;;;;;;5.20;3.90;;;;;;;18.05;48.94;100644.22;4956719;28;20255;-67
2022/10/05 05:48:06;;;;;;;5.10;3.17;;;;;;;18.13;48.65;100652.84;4955952;28;20656;-68
2022/10/05 05:50:48;;;;;;;7.33;3.03;;;;;;;18.35;48.51;100656.03;4994574;28;20550;-67
2022/10/05 05:53:20;;;;;;;3.53;3.23;;;;;;;18.59;49.46;100655.22;4994785;28;20713;-70
2022/10/05 05:55:51;;;;;;;5.67;3.60;;;;;;;18.93;46.34;100674.41;4990225;28;20258;-66
2022/10/05 05:58:24;;;;;;;3.00;2.73;;;;;;;19.21;45.85;100671.22;4995259;28;20712;-68
2022/10/05 06:00:57;;;;;;;2.50;2.30;;;;;;;19.48;44.36;100672.63;4983793;28;20182;-68
2022/10/05 06:03:31;;;;;;;4.50;2.70;;;;;;;19.31;44.98;100668.84;4986282;28;20276;-67
2022/10/05 06:06:01;;;;;;;10.50;3.00;;;;;;;19.26;44.88;100687.56;4975544;28;20253;-67
2022/10/05 06:08:33;;;;;;;3.30;2.60;;;;;;;19.10;45.34;100685.41;4971797;28;20731;-68
2022/10/05 06:11:09;;;;;;;2.77;2.57;;;;;;;19.12;45.33;100691.41;4974824;28;20189;-66
2022/10/05 06:13:40;;;;;;;5.13;2.67;;;;;;;19.46;46.63;100688.19;4974586;28;20228;-69
2022/10/05 06:16:17;;;;;;;3.33;2.67;;;;;;;19.54;44.22;100698.66;4974147;28;20755;-68
2022/10/05 06:18:48;;;;;;;5.43;2.80;;;;;;;19.69;47.12;100693.72;4974690;28;20198;-70
2022/10/05 06:21:21;;;;;;;3.07;2.23;;;;;;;19.75;43.87;100706.28;4975222;28;20193;-68
2022/10/05 06:23:54;;;;;;;4.40;2.30;;;;;;;19.86;42.88;100708.25;4982332;28;20210;-69
2022/10/05 06:26:38;;;;;;;2.20;2.10;;;;;;;19.88;42.47;100714.22;4979557;28;20723;-67
2022/10/05 06:29:11;;;;;;;8.07;2.50;;;;;;;20.05;43.82;100709.88;4980442;28;20269;-67
2022/10/05 06:31:52;;;;;;;3.73;2.40;;;;;;;20.15;41.71;100710.16;4979950;28;20654;-67
2022/10/05 06:34:33;;;;;;;4.93;2.13;;;;;;;19.88;41.72;100715.06;4980101;28;20622;-67
2022/10/05 06:37:05;;;;;;;5.37;2.40;;;;;;;19.77;41.62;100718.50;4980832;28;20195;-66
2022/10/05 06:39:54;;;;;;;3.17;2.30;;;;;;;19.93;41.25;100715.19;4983167;28;20191;-67
2022/10/05 06:42:40;;;;;;;5.50;2.47;;;;;;;20.08;41.68;100714.78;4978715;28;20206;-66
2022/10/05 06:45:17;;;;;;;2.50;2.40;;;;;;;20.16;40.90;100728.00;4982219;28;20613;-65
2022/10/05 06:47:50;;;;;;;4.43;2.37;;;;;;;20.12;40.88;100713.31;4981155;28;20191;-66
2022/10/05 06:50:28;;;;;;;7.77;2.53;;;;;;;20.18;40.75;100718.63;4982338;28;20249;-66
2022/10/05 06:53:08;;;;;;;3.13;2.00;;;;;;;20.08;40.46;100714.78;4979960;28;20226;-63
2022/10/05 06:55:48;;;;;;;2.50;2.27;;;;;;;20.14;42.94;100708.53;4985674;28;20191;-65
2022/10/05 06:58:30;;;;;;;6.70;2.93;;;;;;;19.98;40.76;100706.44;4993615;28;20183;-67
2022/10/05 07:01:03;;;;;;;3.30;2.00;;;;;;;20.26;40.38;100706.69;4963472;28;20183;-67
2022/10/05 07:03:41;;;;;;;5.23;1.93;;;;;;;20.20;42.85;100703.03;4993610;28;20186;-65
2022/10/05 07:06:15;;;;;;;3.77;1.80;;;;;;;20.63;40.05;100702.81;4992778;28;20193;-66
2022/10/05 07:08:53;;;;;;;3.23;1.87;;;;;;;20.76;40.03;100702.59;4987263;28;20200;-68
2022/10/05 07:11:33;;;;;;;7.27;2.00;;;;;;;21.23;38.61;100704.28;4992795;28;20650;-67
2022/10/05 07:14:13;;;;;;;2.27;2.17;;;;;;;21.43;38.43;100704.75;4991226;28;20191;-70
2022/10/05 07:16:50;;;;;;;3.80;2.40;;;;;;;21.93;38.06;100705.84;4973230;28;20194;-69
2022/10/05 07:19:31;;;;;;;5.33;1.90;;;;;;;22.35;37.51;100709.94;4974647;28;20194;-68
2022/10/05 07:22:19;;;;;;;2.50;2.10;;;;;;;22.68;35.48;100710.00;4982017;28;20244;-67
2022/10/05 07:24:56;;;;;;;4.80;2.40;;;;;;;22.68;35.37;100699.16;4978308;28;20210;-71
2022/10/05 07:27:28;;;;;;;2.27;2.07;;;;;;;22.58;36.04;100698.97;4973892;28;20183;-70
2022/10/05 07:30:01;;;;;;;2.33;1.93;;;;;;;22.56;35.48;100711.13;4973438;28;20797;-68
2022/10/05 07:32:35;;;;;;;2.40;2.30;;;;;;;22.67;37.53;100696.69;4973207;28;20191;-67
2022/10/05 07:37:52;;;;;;;3.40;1.93;;;;;;;23.51;35.17;100705.34;4973290;28;20290;-68
2022/10/05 07:37:59;;;;;;;3.73;1.47;;;;;;;23.61;35.51;100697.34;4973199;28;20189;-68
2022/10/05 07:40:30;;;;;;;7.70;1.60;;;;;;;23.90;33.47;100695.28;4991668;28;20190;-68
2022/10/05 07:43:23;;;;;;;1.80;1.70;;;;;;;24.09;33.60;100694.69;4985409;28;20251;-67
2022/10/05 07:45:59;;;;;;;1.60;1.50;;;;;;;24.10;34.03;100693.63;4974049;28;20267;-69
2022/10/05 07:48:32;;;;;;;2.53;1.53;;;;;;;24.46;33.20;100687.47;4973429;28;20188;-68
2022/10/05 07:51:04;;;;;;;5.03;2.17;;;;;;;24.86;32.14;100692.47;4973209;28;20215;-67
2022/10/05 07:53:37;;;;;;;2.07;1.70;;;;;;;25.11;31.96;100689.13;4973637;28;20241;-68
2022/10/05 07:56:12;;;;;;;5.83;1.83;;;;;;;24.53;32.61;100698.13;4974057;28;20245;-68
2022/10/05 07:58:43;;;;;;;3.17;1.60;;;;;;;24.71;32.66;100697.81;4978353;28;20224;-67
2022/10/05 08:01:17;;;;;;;2.17;2.00;;;;;;;25.12;31.39;100705.19;4986332;28;20242;-68
2022/10/05 08:03:52;;;;;;;4.30;1.43;;;;;;;24.55;31.39;100717.72;4973514;28;20191;-66
2022/10/05 08:06:47;;;;;;;3.93;1.93;;;;;;;24.41;33.04;100705.63;4973659;28;20205;-68
2022/10/05 08:09:32;;;;;;;3.93;2.00;;;;;;;24.69;33.37;100706.22;4961494;28;20294;-67
2022/10/05 08:12:09;;;;;;;2.97;1.40;;;;;;;25.11;31.45;100703.53;4985556;28;20194;-66
2022/10/05 08:14:45;;;;;;;2.70;1.57;;;;;;;24.87;31.62;100705.00;4992417;28;20260;-64
2022/10/05 08:17:21;;;;;;;5.83;1.50;;;;;;;24.78;31.67;100712.81;4979155;28;20220;-67
2022/10/05 08:19:55;;;;;;;5.80;2.13;;;;;;;24.66;31.97;100709.44;4974040;28;20190;-68
2022/10/05 08:22:28;;;;;;;4.63;1.70;;;;;;;24.23;32.29;100708.72;4972841;28;20655;-68
2022/10/05 08:25:00;;;;;;;1.73;1.63;;;;;;;24.43;32.66;100707.00;4973081;28;20257;-67
2022/10/05 08:27:33;;;;;;;1.67;1.57;;;;;;;24.54;31.79;100706.03;4992283;28;20194;-69
2022/10/05 08:30:04;;;;;;;20.07;2.93;;;;;;;24.43;32.39;100709.72;4986765;28;20621;-69
2022/10/05 08:32:37;;;;;;;1.80;1.70;;;;;;;24.00;32.41;100666.38;4982040;28;20187;-68
2022/10/05 08:35:16;;;;;;;5.33;2.30;;;;;;;24.56;32.50;100700.34;4986581;28;20193;-65
2022/10/05 08:37:45;;;;;;;2.37;2.17;;;;;;;24.43;32.13;100701.56;4992115;28;20189;-66
2022/10/05 08:40:52;;;;;;;4.03;2.10;;;;;;;24.12;33.80;100699.63;4992354;28;20573;-64
2022/10/05 08:43:45;;;;;;;4.97;1.97;;;;;;;24.68;32.20;100698.31;4985918;28;20220;-65
2022/10/05 08:46:43;;;;;;;5.17;2.30;;;;;;;24.70;32.50;100701.56;4976831;28;20194;-67
2022/10/05 08:49:28;;;;;;;2.20;2.10;;;;;;;24.88;32.11;100696.56;4952538;28;20270;-65
2022/10/05 08:52:27;;;;;;;8.30;2.17;;;;;;;25.33;31.03;100698.00;4976776;28;20199;-66
2022/10/05 08:55:32;;;;;;;1.97;1.80;;;;;;;25.43;31.26;100688.00;4944255;28;20659;-65
2022/10/05 08:58:41;;;;;;;4.03;1.60;;;;;;;25.61;32.14;100686.72;4967233;28;20250;-64
2022/10/05 09:01:20;;;;;;;4.13;1.87;;;;;;;25.86;29.65;100678.66;4982094;28;20191;-65
2022/10/05 09:04:22;;;;;;;13.77;2.23;;;;;;;25.90;30.08;100682.50;4996001;28;20186;-67
2022/10/05 09:07:06;;;;;;;9.97;2.10;;;;;;;26.19;30.87;100680.97;4995731;28;20194;-67
2022/10/05 09:09:58;;;;;;;1.80;1.70;;;;;;;26.55;29.30;100678.03;4985606;28;20250;-67
2022/10/05 09:12:53;;;;;;;3.93;1.97;;;;;;;26.77;29.33;100683.22;4975906;28;20243;-65
2022/10/05 09:15:39;;;;;;;1.97;1.40;;;;;;;27.07;28.46;100677.78;4965899;28;20200;-64
2022/10/05 09:18:45;;;;;;;2.53;1.63;;;;;;;26.82;28.45;100672.34;4974241;28;20245;-66
2022/10/05 09:21:26;;;;;;;9.83;2.10;;;;;;;26.42;28.60;100672.31;4981122;28;20624;-64
2022/10/05 09:24:10;;;;;;;2.90;1.50;;;;;;;26.45;28.89;100674.50;4984755;28;20187;-66
2022/10/05 09:26:50;;;;;;;1.43;1.33;;;;;;;26.59;27.63;100672.88;4977713;28;20235;-67
2022/10/05 09:30:03;;;;;;;2.40;1.80;;;;;;;26.68;27.54;100679.44;4975249;28;20655;-65
2022/10/05 09:32:56;;;;;;;3.43;1.63;;;;;;;26.93;27.73;100663.88;4929600;28;20647;-66
2022/10/05 09:35:53;;;;;;;3.73;1.50;;;;;;;27.09;27.76;100670.13;4945668;28;20205;-67
2022/10/05 09:38:31;;;;;;;3.40;1.40;;;;;;;27.23;27.25;100673.97;4950728;28;20246;-66
2022/10/05 09:41:36;;;;;;;2.77;1.70;;;;;;;27.21;28.13;100662.50;4974497;28;20635;-66
2022/10/05 09:44:31;;;;;;;2.10;1.27;;;;;;;27.25;27.56;100663.56;4973775;28;20668;-65
2022/10/05 09:47:11;;;;;;;1.10;1.10;;;;;;;27.17;25.61;100670.38;4973449;28;20552;-65
2022/10/05 09:50:11;;;;;;;2.07;1.40;;;;;;;26.65;26.75;100669.06;4974122;28;20191;-64
2022/10/05 09:52:55;;;;;;;1.53;1.43;;;;;;;26.66;26.71;100659.81;4973155;28;20278;-65
2022/10/05 09:56:05;;;;;;;3.00;1.60;;;;;;;26.19;27.26;100668.19;4974325;28;20544;-65
2022/10/05 09:59:06;;;;;;;1.70;1.47;;;;;;;25.58;28.00;100668.19;4947019;28;20556;-65
2022/10/05 10:01:54;;;;;;;6.07;2.00;;;;;;;25.46;29.06;100665.72;4979908;28;20206;-64
2022/10/05 10:04:43;;;;;;;3.77;1.53;;;;;;;25.14;28.38;100672.31;4994163;28;20213;-64
2022/10/05 10:07:51;;;;;;;2.13;1.37;;;;;;;25.20;27.93;100671.25;4994253;28;20186;-64
2022/10/05 10:10:56;;;;;;;2.07;1.40;;;;;;;25.20;27.90;100669.34;4994518;28;20245;-65
2022/10/05 10:13:58;;;;;;;2.00;1.43;;;;;;;25.23;27.92;100665.28;4989374;28;20599;-65
2022/10/05 10:16:48;;;;;;;1.37;1.20;;;;;;;25.46;27.79;100665.72;4994051;28;20752;-65
2022/10/05 10:19:53;;;;;;;1.73;1.20;;;;;;;25.79;27.47;100665.31;4974570;28;20203;-64
2022/10/05 10:22:53;;;;;;;3.23;1.00;;;;;;;25.85;27.91;100652.53;4973773;28;20191;-66
2022/10/05 10:25:45;;;;;;;2.77;1.30;;;;;;;26.16;27.62;100659.69;4973030;28;20212;-68
2022/10/05 10:28:54;;;;;;;3.27;1.43;;;;;;;26.15;26.94;100658.06;4971355;28;20261;-67
2022/10/05 10:31:46;;;;;;;2.73;1.33;;;;;;;26.07;27.57;100650.44;4947293;28;20199;-67
2022/10/05 10:34:30;;;;;;;3.40;1.40;;;;;;;25.87;27.29;100647.63;4962934;28;20199;-70
2022/10/05 10:37:20;;;;;;;1.87;1.40;;;;;;;26.08;29.88;100641.16;4974579;28;20199;-70
2022/10/05 10:40:08;;;;;;;1.30;1.20;;;;;;;26.08;27.56;100652.06;4976537;28;20194;-66
2022/10/05 10:42:45;;;;;;;60.67;6.03;;;;;;;25.96;26.47;100644.13;4974152;28;20199;-67
2022/10/05 10:45:27;;;;;;;1.23;1.13;;;;;;;25.95;27.28;100647.13;4974096;28;20207;-65
2022/10/05 10:48:02;;;;;;;1.73;1.30;;;;;;;25.92;27.42;100644.94;4974407;28;20198;-65
2022/10/05 10:51:14;;;;;;;1.70;1.60;;;;;;;25.58;26.65;100643.72;4974608;28;20638;-66
2022/10/05 10:54:11;;;;;;;1.20;1.20;;;;;;;25.26;27.70;100632.09;4952392;29;20779;-66
2022/10/05 10:56:50;;;;;;;2.37;1.27;;;;;;;25.32;28.04;100636.53;4952840;29;20219;-67
2022/10/05 10:59:47;;;;;;;1.90;1.17;;;;;;;25.19;27.11;100643.22;4969883;28;20667;-68
2022/10/05 11:02:35;;;;;;;2.50;1.07;;;;;;;25.27;28.08;100639.19;4973830;28;20187;-67
2022/10/05 11:05:33;;;;;;;1.07;0.97;;;;;;;25.65;28.03;100636.13;4973930;28;20208;-66
2022/10/05 11:08:24;;;;;;;1.10;1.10;;;;;;;25.92;25.74;100639.50;4972551;28;20203;-68
2022/10/05 11:11:14;;;;;;;0.93;0.80;;;;;;;25.69;25.55;100626.34;4973728;28;20192;-68
2022/10/05 11:14:01;;;;;;;1.87;0.87;;;;;;;25.57;25.73;100629.28;4974218;28;20242;-66
2022/10/05 11:16:46;;;;;;;3.73;1.10;;;;;;;25.53;26.19;100622.75;4973448;28;20286;-65
2022/10/05 11:19:51;;;;;;;0.83;0.83;;;;;;;25.64;25.87;100618.16;4973807;28;20606;-65
2022/10/05 11:22:33;;;;;;;2.37;0.90;;;;;;;25.70;25.62;100617.91;4952226;29;20192;-65
2022/10/05 11:25:26;;;;;;;4.23;1.37;;;;;;;25.51;26.89;100624.09;4971983;28;20223;-66
2022/10/05 11:28:22;;;;;;;3.00;1.00;;;;;;;25.11;26.89;100602.09;4990984;28;20241;-64
2022/10/05 11:31:14;;;;;;;5.33;1.30;;;;;;;25.26;27.14;100613.88;4973020;28;20274;-66
2022/10/05 11:34:06;;;;;;;3.33;1.13;;;;;;;25.21;27.39;100607.59;4943952;28;20250;-67
2022/10/05 11:36:52;;;;;;;1.93;1.43;;;;;;;25.23;27.86;100608.94;4973135;28;20191;-65
2022/10/05 11:39:32;;;;;;;2.33;1.40;;;;;;;25.23;27.03;100610.88;4973943;28;20198;-66
2022/10/05 11:42:31;;;;;;;1.50;1.00;;;;;;;25.06;26.61;100611.03;4973107;28;20214;-67
2022/10/05 11:45:36;;;;;;;1.17;1.17;;;;;;;24.71;27.78;100603.47;4969317;28;20654;-67
2022/10/05 11:48:21;;;;;;;1.23;1.13;;;;;;;24.59;28.51;100594.66;4973772;28;20250;-67
2022/10/05 11:51:14;;;;;;;0.90;0.90;;;;;;;24.73;28.01;100597.78;4973642;28;20592;-66
2022/10/05 11:53:56;;;;;;;2.07;1.37;;;;;;;24.64;28.17;100592.03;4973771;28;20293;-66
2022/10/05 11:56:28;;;;;;;3.10;1.20;;;;;;;24.77;28.34;100583.41;4973685;28;20219;-66
2022/10/05 11:59:00;;;;;;;6.00;1.20;;;;;;;24.51;28.19;100570.69;4973676;28;20187;-66
2022/10/05 12:01:33;;;;;;;14.20;1.30;;;;;;;24.59;28.20;100581.06;4973307;28;20183;-67
2022/10/05 12:04:13;;;;;;;2.33;1.13;;;;;;;24.63;29.31;100579.50;4973317;28;20729;-66
2022/10/05 12:06:53;;;;;;;2.67;1.00;;;;;;;24.50;28.79;100577.22;4973192;28;20211;-67
2022/10/05 12:12:38;;;;;;;5.87;1.20;;;;;;;24.82;27.81;100577.19;4972746;28;20202;-67
2022/10/05 12:15:17;;;;;;;1.00;1.00;;;;;;;24.91;28.38;100568.28;4975025;28;20194;-67
2022/10/05 12:17:52;;;;;;;3.17;1.10;;;;;;;25.14;29.45;100563.50;4977517;28;20270;-68
2022/10/05 12:20:24;;;;;;;1.40;1.13;;;;;;;25.12;27.47;100571.09;4977232;28;20273;-67
2022/10/05 12:22:57;;;;;;;2.63;1.00;;;;;;;25.07;27.71;100568.38;4977987;28;20254;-65
2022/10/05 12:25:32;;;;;;;8.20;1.23;;;;;;;25.13;27.43;100567.28;4976816;28;20207;-66
2022/10/05 12:28:03;;;;;;;1.20;1.10;;;;;;;24.67;27.33;100564.31;4976760;28;20191;-66